Time;durP1;ratioP1;P1;durP2;ratioP2;P2;SDS_P1;SDS_P2;PMS_P1;PMS_P2;Temp;Humidity;BMP_temperature;BMP_pressure;BME280_temperature;BME280_humidity;BME280_pressure;Samples;Min_cycle;Max_cycle;Signal;HPM_P1;HPM_P2
2023/09/24 00:01:34;;;;;;;1.20;1.10;;;12.10;99.90;;;;;;4973630;28;20584;-56
2023/09/24 00:04:01;;;;;;;1.27;1.20;;;12.10;99.90;;;;;;4971068;28;20204;-56
2023/09/24 00:06:28;;;;;;;1.13;1.03;;;12.00;99.90;;;;;;4974609;28;20207;-56
2023/09/24 00:08:55;;;;;;;1.40;1.30;;;12.00;99.90;;;;;;4975003;28;20235;-56
2023/09/24 00:11:25;;;;;;;1.13;1.07;;;12.00;99.90;;;;;;4972909;28;20215;-56
2023/09/24 00:13:52;;;;;;;1.50;1.40;;;12.00;99.90;;;;;;4974103;28;20211;-56
2023/09/24 00:16:19;;;;;;;2.70;1.40;;;12.00;99.90;;;;;;4965472;28;20262;-56
2023/09/24 00:18:45;;;;;;;1.23;1.13;;;11.90;99.90;;;;;;4974147;28;20226;-56
2023/09/24 00:21:13;;;;;;;1.23;1.23;;;12.00;99.90;;;;;;4974694;28;20215;-56
2023/09/24 00:23:40;;;;;;;2.20;1.30;;;11.90;99.90;;;;;;4973681;28;20200;-56
2023/09/24 00:26:07;;;;;;;2.00;1.37;;;11.90;99.90;;;;;;4971787;28;20294;-56
2023/09/24 00:28:35;;;;;;;1.17;1.10;;;11.90;99.90;;;;;;4974215;28;20302;-56
2023/09/24 00:31:03;;;;;;;1.10;1.10;;;11.90;99.90;;;;;;4970984;28;20263;-56
2023/09/24 00:33:29;;;;;;;1.60;1.27;;;11.90;99.90;;;;;;4973346;28;20222;-56
2023/09/24 00:35:59;;;;;;;1.70;1.60;;;11.90;99.90;;;;;;4973827;28;20200;-57
2023/09/24 00:38:26;;;;;;;2.00;1.47;;;11.80;99.90;;;;;;4974072;28;20569;-56
2023/09/24 00:40:53;;;;;;;1.47;1.03;;;11.90;99.90;;;;;;4971230;28;20312;-56
2023/09/24 00:43:28;;;;;;;1.67;1.57;;;11.80;99.90;;;;;;4972482;28;20197;-56
2023/09/24 00:45:58;;;;;;;2.53;1.17;;;11.70;99.90;;;;;;4973109;28;20239;-56
2023/09/24 00:48:30;;;;;;;1.20;1.20;;;11.80;99.90;;;;;;4974628;28;20235;-56
2023/09/24 00:50:58;;;;;;;1.10;1.10;;;11.80;99.90;;;;;;4973296;28;20750;-56
2023/09/24 00:53:27;;;;;;;1.20;1.10;;;11.80;99.90;;;;;;4968786;28;20224;-56
2023/09/24 00:55:55;;;;;;;1.13;1.13;;;11.80;99.90;;;;;;4971375;28;20287;-56
2023/09/24 00:58:25;;;;;;;1.00;1.00;;;11.80;99.90;;;;;;4973158;28;20287;-56
2023/09/24 01:00:53;;;;;;;1.10;1.00;;;11.80;99.90;;;;;;4969566;28;20598;-56
2023/09/24 01:03:24;;;;;;;0.77;0.77;;;11.80;99.90;;;;;;4972711;28;20196;-56
2023/09/24 01:05:51;;;;;;;2.00;1.30;;;11.80;99.90;;;;;;4973678;28;20246;-56
2023/09/24 01:08:19;;;;;;;1.30;1.30;;;11.80;99.90;;;;;;4973288;28;20197;-56
2023/09/24 01:10:47;;;;;;;1.07;0.70;;;11.80;99.90;;;;;;4973012;28;20203;-56
2023/09/24 01:13:19;;;;;;;1.27;1.00;;;11.80;99.90;;;;;;4973815;28;20267;-56
2023/09/24 01:15:48;;;;;;;1.83;1.10;;;11.80;99.90;;;;;;4972642;28;20209;-56
2023/09/24 01:18:15;;;;;;;1.20;1.20;;;11.80;99.90;;;;;;4973763;28;20210;-56
2023/09/24 01:20:44;;;;;;;1.20;1.20;;;11.80;99.90;;;;;;4973130;28;20337;-56
2023/09/24 01:23:14;;;;;;;1.63;1.00;;;11.80;99.90;;;;;;4972298;28;20608;-56
2023/09/24 01:25:43;;;;;;;3.27;2.03;;;11.80;99.90;;;;;;4969642;28;20705;-56
2023/09/24 01:28:10;;;;;;;3.27;1.70;;;11.80;99.90;;;;;;4971432;28;20197;-55
2023/09/24 01:30:38;;;;;;;2.00;1.57;;;11.80;99.90;;;;;;4971924;28;20211;-56
2023/09/24 01:33:06;;;;;;;1.27;1.17;;;11.80;99.90;;;;;;4971235;28;20255;-57
2023/09/24 01:35:34;;;;;;;1.27;0.80;;;11.80;99.90;;;;;;4971684;28;20292;-56
2023/09/24 01:38:04;;;;;;;0.90;0.60;;;11.80;99.90;;;;;;4973162;28;20676;-56
2023/09/24 01:40:35;;;;;;;0.93;0.67;;;11.70;99.90;;;;;;4971917;28;20655;-56
2023/09/24 01:43:04;;;;;;;0.80;0.80;;;11.70;99.90;;;;;;4971779;28;20237;-56
2023/09/24 01:45:33;;;;;;;0.77;0.50;;;11.70;99.90;;;;;;4972091;28;20291;-56
2023/09/24 01:48:00;;;;;;;0.50;0.47;;;11.70;99.90;;;;;;4973031;28;20226;-56
2023/09/24 01:50:28;;;;;;;2.00;0.80;;;11.70;99.90;;;;;;4972610;28;20287;-56
2023/09/24 01:52:57;;;;;;;1.00;1.00;;;11.60;99.90;;;;;;4972088;28;20228;-56
2023/09/24 01:55:24;;;;;;;1.47;0.70;;;11.60;99.90;;;;;;4971715;28;20656;-56
2023/09/24 01:57:53;;;;;;;0.60;0.60;;;11.60;99.90;;;;;;4972456;28;20266;-56
2023/09/24 02:00:25;;;;;;;0.80;0.50;;;11.60;99.90;;;;;;4963794;28;20287;-56
2023/09/24 02:02:52;;;;;;;0.37;0.37;;;11.60;99.90;;;;;;4971890;28;20207;-56
2023/09/24 02:05:20;;;;;;;2.63;0.60;;;11.50;99.90;;;;;;4962711;28;20280;-57
2023/09/24 02:07:48;;;;;;;0.73;0.70;;;11.40;99.90;;;;;;4971651;28;20201;-56
2023/09/24 02:10:16;;;;;;;0.57;0.50;;;11.40;99.90;;;;;;4972345;28;20330;-56
2023/09/24 02:12:44;;;;;;;0.30;0.30;;;11.40;99.90;;;;;;4971444;28;20312;-56
2023/09/24 02:15:17;;;;;;;0.87;0.87;;;11.30;99.90;;;;;;4970377;28;20234;-56
2023/09/24 02:17:46;;;;;;;1.13;0.60;;;11.20;99.90;;;;;;4970965;28;20212;-56
2023/09/24 02:20:22;;;;;;;0.80;0.50;;;11.20;99.90;;;;;;4972141;28;20227;-56
2023/09/24 02:22:50;;;;;;;0.93;0.50;;;11.20;99.90;;;;;;4972332;28;20269;-56
2023/09/24 02:25:18;;;;;;;2.53;0.70;;;11.20;99.90;;;;;;4969877;28;20226;-56
2023/09/24 02:27:46;;;;;;;0.90;0.50;;;11.20;99.90;;;;;;4964737;28;20204;-57
2023/09/24 02:30:15;;;;;;;0.57;0.57;;;11.10;99.90;;;;;;4971103;28;20232;-56
2023/09/24 02:32:43;;;;;;;1.37;0.50;;;11.10;99.90;;;;;;4967929;28;20278;-56
2023/09/24 02:35:12;;;;;;;0.57;0.57;;;11.10;99.90;;;;;;4969650;28;20224;-56
2023/09/24 02:37:39;;;;;;;1.50;0.30;;;11.10;99.90;;;;;;4971705;28;20207;-56
2023/09/24 02:40:11;;;;;;;1.30;0.90;;;11.10;99.90;;;;;;4970919;28;20319;-56
2023/09/24 02:42:38;;;;;;;0.90;0.90;;;11.00;99.90;;;;;;4972603;28;20702;-57
2023/09/24 02:45:08;;;;;;;1.77;0.60;;;10.90;99.90;;;;;;4972103;28;20255;-56
2023/09/24 02:47:37;;;;;;;3.90;0.50;;;10.90;99.90;;;;;;4966648;28;20211;-56
2023/09/24 02:50:12;;;;;;;2.90;1.03;;;10.90;99.90;;;;;;4971749;28;20226;-56
2023/09/24 02:52:40;;;;;;;0.60;0.60;;;10.90;99.90;;;;;;4968864;28;20226;-56
2023/09/24 02:55:08;;;;;;;0.50;0.50;;;10.80;99.90;;;;;;4970150;28;20206;-56
2023/09/24 02:57:35;;;;;;;0.83;0.77;;;10.70;99.90;;;;;;4970962;28;20691;-55
2023/09/24 03:00:08;;;;;;;0.80;0.80;;;10.70;99.90;;;;;;4970424;28;20639;-56
2023/09/24 03:02:37;;;;;;;0.50;0.50;;;10.70;99.90;;;;;;4970514;28;20207;-56
2023/09/24 03:05:08;;;;;;;0.93;0.87;;;10.60;99.90;;;;;;4973009;28;20302;-56
2023/09/24 03:07:35;;;;;;;3.07;0.60;;;10.60;99.90;;;;;;4970044;28;20210;-56
2023/09/24 03:10:02;;;;;;;1.67;0.70;;;10.60;99.90;;;;;;4979574;28;20230;-56
2023/09/24 03:12:31;;;;;;;0.50;0.50;;;10.60;99.90;;;;;;4972629;28;20208;-56
2023/09/24 03:14:58;;;;;;;1.10;1.00;;;10.60;99.90;;;;;;4982628;28;20265;-56
2023/09/24 03:17:25;;;;;;;0.83;0.83;;;10.50;99.90;;;;;;4968187;28;20204;-56
2023/09/24 03:19:53;;;;;;;2.03;0.93;;;10.50;99.90;;;;;;4970855;28;20267;-56
2023/09/24 03:22:21;;;;;;;0.90;0.90;;;10.50;99.90;;;;;;4981629;28;20209;-56
2023/09/24 03:24:48;;;;;;;1.30;0.77;;;10.40;99.90;;;;;;4981938;28;20211;-56
2023/09/24 03:27:15;;;;;;;0.70;0.70;;;10.40;99.90;;;;;;4973184;28;20222;-56
2023/09/24 03:29:43;;;;;;;1.27;0.60;;;10.40;99.90;;;;;;4974898;28;20227;-56
2023/09/24 03:32:10;;;;;;;0.70;0.50;;;10.40;99.90;;;;;;4983686;28;20293;-56
2023/09/24 03:34:38;;;;;;;1.90;0.77;;;10.30;99.90;;;;;;4983250;28;20237;-56
2023/09/24 03:37:09;;;;;;;1.40;0.60;;;10.30;99.90;;;;;;4969986;28;20261;-56
2023/09/24 03:39:36;;;;;;;0.60;0.60;;;10.30;99.90;;;;;;4973760;28;20350;-57
2023/09/24 03:42:03;;;;;;;0.70;0.70;;;10.20;99.90;;;;;;4979801;28;20263;-56
2023/09/24 03:44:32;;;;;;;0.87;0.87;;;10.30;99.90;;;;;;4981275;28;20737;-57
2023/09/24 03:46:58;;;;;;;8.77;3.37;;;10.30;99.90;;;;;;4972366;28;20630;-56
2023/09/24 03:49:25;;;;;;;0.80;0.77;;;10.30;99.90;;;;;;4975709;28;20278;-56
2023/09/24 03:51:52;;;;;;;0.93;0.87;;;10.30;99.90;;;;;;4973465;28;20211;-56
2023/09/24 03:54:21;;;;;;;1.20;0.50;;;10.30;99.90;;;;;;4983778;28;20254;-56
2023/09/24 03:56:47;;;;;;;0.67;0.67;;;10.30;99.90;;;;;;4973578;28;20254;-56
2023/09/24 03:59:14;;;;;;;0.63;0.63;;;10.30;99.90;;;;;;4975445;28;20230;-56
2023/09/24 04:01:41;;;;;;;0.57;0.57;;;10.30;99.90;;;;;;4980981;28;20210;-56
2023/09/24 04:04:11;;;;;;;0.63;0.63;;;10.30;99.90;;;;;;4977933;28;20204;-56
2023/09/24 04:06:38;;;;;;;0.50;0.50;;;10.20;99.90;;;;;;4973554;28;20286;-56
2023/09/24 04:09:05;;;;;;;0.70;0.70;;;10.20;99.90;;;;;;4975459;28;20310;-56
2023/09/24 04:11:34;;;;;;;0.87;0.87;;;10.20;99.90;;;;;;4984940;28;20210;-56
2023/09/24 04:14:02;;;;;;;0.67;0.67;;;10.20;99.90;;;;;;4985467;28;20248;-56
2023/09/24 04:16:30;;;;;;;0.97;0.70;;;10.10;99.90;;;;;;4972541;28;20290;-56
2023/09/24 04:18:57;;;;;;;1.43;0.80;;;10.10;99.90;;;;;;4974455;28;20267;-56
2023/09/24 04:21:24;;;;;;;1.00;1.00;;;10.00;99.90;;;;;;4975090;28;20238;-56
2023/09/24 04:23:51;;;;;;;1.30;1.20;;;10.00;99.90;;;;;;4980383;28;20252;-57
2023/09/24 04:26:21;;;;;;;0.90;0.90;;;9.90;99.90;;;;;;4963735;28;20219;-56
2023/09/24 04:28:50;;;;;;;1.70;0.87;;;9.90;99.90;;;;;;4971205;28;20319;-56
2023/09/24 04:31:17;;;;;;;1.43;1.03;;;9.90;99.90;;;;;;4981645;28;20301;-56
2023/09/24 04:33:45;;;;;;;3.17;1.10;;;9.90;99.90;;;;;;4985632;28;20273;-56
2023/09/24 04:36:12;;;;;;;2.33;0.80;;;9.90;99.90;;;;;;4970215;28;20265;-56
2023/09/24 04:38:40;;;;;;;7.43;1.77;;;9.90;99.90;;;;;;4972911;28;20231;-56
2023/09/24 04:41:07;;;;;;;1.20;0.77;;;9.90;99.90;;;;;;4982496;28;20588;-56
2023/09/24 04:43:35;;;;;;;0.83;0.60;;;9.80;99.90;;;;;;4988040;28;20745;-56
2023/09/24 04:46:05;;;;;;;0.60;0.60;;;9.90;99.90;;;;;;4980520;28;20688;-56
2023/09/24 04:48:33;;;;;;;2.83;0.97;;;9.80;99.90;;;;;;4973474;28;20230;-56
2023/09/24 04:51:00;;;;;;;0.80;0.80;;;9.80;99.90;;;;;;4974844;28;20204;-56
2023/09/24 04:53:27;;;;;;;2.37;0.93;;;9.80;99.90;;;;;;4970170;28;20231;-56
2023/09/24 04:55:54;;;;;;;1.23;1.07;;;9.70;99.90;;;;;;4967262;28;20204;-56
2023/09/24 04:58:21;;;;;;;0.77;0.77;;;9.70;99.90;;;;;;4966132;28;20207;-56
2023/09/24 05:00:48;;;;;;;0.93;0.83;;;9.80;99.90;;;;;;4964391;28;20203;-56
2023/09/24 05:03:17;;;;;;;0.97;0.70;;;9.80;99.90;;;;;;4968659;28;20205;-56
2023/09/24 05:05:44;;;;;;;0.77;0.77;;;9.80;99.90;;;;;;4966128;28;20210;-56
2023/09/24 05:08:11;;;;;;;1.37;1.27;;;9.80;99.90;;;;;;4966472;28;20646;-56
2023/09/24 05:10:42;;;;;;;0.57;0.57;;;9.80;99.90;;;;;;4966281;28;20266;-56
2023/09/24 05:13:09;;;;;;;1.53;0.63;;;9.80;99.90;;;;;;4967381;28;20205;-56
2023/09/24 05:15:37;;;;;;;2.97;0.93;;;9.70;99.90;;;;;;4974061;28;20231;-56
2023/09/24 05:18:04;;;;;;;1.20;0.87;;;9.70;99.90;;;;;;4965693;28;21392;-56
2023/09/24 05:20:33;;;;;;;4.70;3.03;;;9.70;99.90;;;;;;4965898;28;20313;-56
2023/09/24 05:23:00;;;;;;;5.53;3.90;;;9.70;99.90;;;;;;4963582;28;20225;-55
2023/09/24 05:25:27;;;;;;;7.40;4.67;;;9.70;99.90;;;;;;4963081;28;20215;-56
2023/09/24 05:27:54;;;;;;;3.60;3.30;;;9.70;99.90;;;;;;4963963;28;20750;-56
2023/09/24 05:30:21;;;;;;;9.80;4.20;;;9.70;99.90;;;;;;4965785;28;20231;-56
2023/09/24 05:32:48;;;;;;;1.77;1.67;;;9.70;99.90;;;;;;4965740;28;20204;-56
2023/09/24 05:35:15;;;;;;;1.33;1.23;;;9.80;99.90;;;;;;4964836;28;20273;-57
2023/09/24 05:37:43;;;;;;;1.43;1.33;;;9.80;99.90;;;;;;4968341;28;20211;-56
2023/09/24 05:40:11;;;;;;;2.03;1.17;;;9.70;99.90;;;;;;4963842;28;20304;-56
2023/09/24 05:42:38;;;;;;;2.73;1.70;;;9.70;99.90;;;;;;4965108;28;20737;-56
2023/09/24 05:45:06;;;;;;;4.57;4.10;;;9.80;99.90;;;;;;4965577;28;20253;-56
2023/09/24 05:47:33;;;;;;;5.60;4.47;;;9.70;99.90;;;;;;4965136;28;20221;-56
2023/09/24 05:50:01;;;;;;;4.50;4.10;;;9.80;99.90;;;;;;4968207;28;20231;-56
2023/09/24 05:52:28;;;;;;;9.97;5.23;;;9.80;99.90;;;;;;4967023;28;22382;-56
2023/09/24 05:54:57;;;;;;;7.10;4.13;;;9.90;99.90;;;;;;4963521;28;20715;-56
2023/09/24 05:57:26;;;;;;;4.20;3.00;;;9.90;99.90;;;;;;4964714;28;20282;-56
2023/09/24 05:59:53;;;;;;;7.57;5.30;;;9.90;99.90;;;;;;4970317;28;20225;-57
2023/09/24 06:02:21;;;;;;;8.10;5.00;;;10.00;99.90;;;;;;4967810;28;20632;-56
2023/09/24 06:04:49;;;;;;;9.53;5.63;;;10.00;99.90;;;;;;4967528;28;20238;-56
2023/09/24 06:07:16;;;;;;;8.10;5.37;;;10.30;99.90;;;;;;4965021;28;20290;-56
2023/09/24 06:09:42;;;;;;;7.07;4.77;;;10.80;99.90;;;;;;4964427;28;22173;-56
2023/09/24 06:12:11;;;;;;;2.73;1.83;;;11.60;99.90;;;;;;4964922;28;20271;-56
2023/09/24 06:14:38;;;;;;;1.33;1.23;;;12.20;99.90;;;;;;4964250;28;20218;-56
2023/09/24 06:17:05;;;;;;;5.07;1.13;;;12.70;99.90;;;;;;4962436;28;20599;-56
2023/09/24 06:19:32;;;;;;;1.93;1.83;;;12.60;99.90;;;;;;4970404;28;20227;-56
2023/09/24 06:21:59;;;;;;;6.37;2.50;;;12.70;99.90;;;;;;4972905;28;20645;-56
2023/09/24 06:24:30;;;;;;;1.20;1.10;;;12.70;99.90;;;;;;4972850;28;20193;-57
2023/09/24 06:26:57;;;;;;;1.70;0.93;;;12.50;99.90;;;;;;4972590;28;20262;-56
2023/09/24 06:29:25;;;;;;;2.03;0.53;;;12.30;99.90;;;;;;4964640;28;20216;-56
2023/09/24 06:31:52;;;;;;;2.97;1.20;;;12.10;99.90;;;;;;4967400;28;20212;-56
2023/09/24 06:34:20;;;;;;;1.97;0.70;;;11.90;99.90;;;;;;4973376;28;20235;-55
2023/09/24 06:36:47;;;;;;;1.17;0.90;;;11.90;99.90;;;;;;4972619;28;20557;-55
2023/09/24 06:39:15;;;;;;;0.97;0.97;;;11.70;99.90;;;;;;4972449;28;20239;-55
2023/09/24 06:41:42;;;;;;;1.20;1.10;;;11.60;99.90;;;;;;4972716;28;20217;-55
2023/09/24 06:44:10;;;;;;;1.20;1.10;;;11.60;99.90;;;;;;4972525;28;20286;-55
2023/09/24 06:46:39;;;;;;;1.47;0.97;;;11.60;99.90;;;;;;4973743;28;20288;-55
2023/09/24 06:49:06;;;;;;;1.83;1.03;;;11.80;99.90;;;;;;4971545;28;20286;-55
2023/09/24 06:51:33;;;;;;;0.80;0.80;;;11.90;99.90;;;;;;4973952;28;20209;-55
2023/09/24 06:53:59;;;;;;;2.23;0.60;;;11.90;99.90;;;;;;4971708;28;20223;-55
2023/09/24 06:56:27;;;;;;;1.70;0.87;;;11.90;99.90;;;;;;4972173;28;20237;-55
2023/09/24 06:58:54;;;;;;;1.27;1.17;;;12.00;99.90;;;;;;4973866;28;20259;-55
2023/09/24 07:01:20;;;;;;;1.57;1.10;;;12.10;99.90;;;;;;4971975;28;20199;-55
2023/09/24 07:03:49;;;;;;;0.70;0.70;;;12.20;99.90;;;;;;4975932;28;20255;-55
2023/09/24 07:06:16;;;;;;;0.87;0.87;;;12.30;99.90;;;;;;4986651;28;20228;-55
2023/09/24 07:08:44;;;;;;;0.60;0.60;;;12.40;99.90;;;;;;4996299;28;20222;-55
2023/09/24 07:11:27;;;;;;;1.57;1.47;;;12.50;99.90;;;;;;4989408;28;20250;-55
2023/09/24 07:13:55;;;;;;;0.70;0.70;;;12.60;99.90;;;;;;4975188;28;20602;-55
2023/09/24 07:16:23;;;;;;;0.40;0.40;;;12.60;99.90;;;;;;4975351;28;20258;-56
2023/09/24 07:18:52;;;;;;;0.57;0.50;;;12.60;99.90;;;;;;4987123;28;20318;-55
2023/09/24 07:21:21;;;;;;;1.00;0.70;;;12.70;99.90;;;;;;4976145;28;20208;-56
2023/09/24 07:23:50;;;;;;;0.70;0.50;;;12.70;99.90;;;;;;4976131;28;20267;-55
2023/09/24 07:26:18;;;;;;;1.57;0.50;;;12.80;99.90;;;;;;4989890;28;20203;-55
2023/09/24 07:28:45;;;;;;;0.80;0.70;;;12.90;99.90;;;;;;4985646;28;20232;-55
2023/09/24 07:31:16;;;;;;;6.10;0.70;;;12.90;99.90;;;;;;4978770;28;20285;-55
2023/09/24 07:33:44;;;;;;;0.50;0.50;;;12.90;99.90;;;;;;4974281;28;20229;-55
2023/09/24 07:36:13;;;;;;;1.40;0.63;;;12.80;99.90;;;;;;4974910;28;20205;-55
2023/09/24 07:38:40;;;;;;;3.03;0.70;;;13.00;99.90;;;;;;4969744;28;20228;-55
2023/09/24 07:41:08;;;;;;;1.10;0.70;;;13.10;99.90;;;;;;4972785;28;20232;-55
2023/09/24 07:43:35;;;;;;;1.20;0.60;;;13.30;99.90;;;;;;4975304;28;20215;-55
2023/09/24 07:46:03;;;;;;;0.80;0.50;;;13.60;99.90;;;;;;4974229;28;20331;-55
2023/09/24 07:48:30;;;;;;;1.07;0.80;;;13.80;99.90;;;;;;4975659;28;20675;-55
2023/09/24 07:50:57;;;;;;;1.43;0.80;;;13.90;99.90;;;;;;4975650;28;20286;-55
2023/09/24 07:53:25;;;;;;;1.40;0.50;;;14.00;99.90;;;;;;4975433;28;20204;-56
2023/09/24 07:55:56;;;;;;;0.60;0.60;;;14.00;99.90;;;;;;4975152;28;20224;-55
2023/09/24 07:58:24;;;;;;;0.60;0.57;;;14.00;99.90;;;;;;4972858;28;20583;-55
2023/09/24 08:00:51;;;;;;;0.80;0.80;;;13.90;99.90;;;;;;4970913;28;20760;-55
2023/09/24 08:03:18;;;;;;;0.83;0.77;;;13.90;99.90;;;;;;4973543;28;20208;-55
2023/09/24 08:05:45;;;;;;;3.13;0.60;;;14.10;99.90;;;;;;4977986;28;20267;-55
2023/09/24 08:08:12;;;;;;;0.50;0.50;;;14.00;99.90;;;;;;4985519;28;20208;-55
2023/09/24 08:10:40;;;;;;;1.87;0.80;;;14.10;99.90;;;;;;4981446;28;20243;-55
2023/09/24 08:13:07;;;;;;;3.03;0.83;;;14.40;99.90;;;;;;4973607;28;20279;-54
2023/09/24 08:15:34;;;;;;;0.77;0.77;;;14.90;99.90;;;;;;4977901;28;20594;-54
2023/09/24 08:18:01;;;;;;;1.50;0.90;;;15.70;99.90;;;;;;4977872;28;20840;-54
2023/09/24 08:20:28;;;;;;;0.60;0.60;;;16.30;99.90;;;;;;4980211;28;20228;-54
2023/09/24 08:22:55;;;;;;;0.40;0.40;;;17.10;99.90;;;;;;4981376;28;20200;-54
2023/09/24 08:25:22;;;;;;;1.30;0.63;;;17.80;99.90;;;;;;4984123;28;20251;-55
2023/09/24 08:27:50;;;;;;;0.70;0.70;;;18.20;99.90;;;;;;4973702;28;20208;-55
2023/09/24 08:30:18;;;;;;;1.43;0.83;;;18.70;99.90;;;;;;4975389;28;20224;-55
2023/09/24 08:32:45;;;;;;;0.70;0.70;;;19.20;99.90;;;;;;4984628;28;20225;-55
2023/09/24 08:35:12;;;;;;;0.77;0.77;;;20.00;99.90;;;;;;4975671;28;20228;-55
2023/09/24 08:37:39;;;;;;;0.53;0.53;;;20.50;99.90;;;;;;4976838;28;20236;-55
2023/09/24 08:40:09;;;;;;;0.70;0.70;;;20.90;99.90;;;;;;4976297;28;20290;-55
2023/09/24 08:42:38;;;;;;;1.13;0.87;;;21.20;99.90;;;;;;4973452;28;20287;-55
2023/09/24 08:45:12;;;;;;;0.60;0.60;;;21.10;99.90;;;;;;4979296;28;20201;-55
2023/09/24 08:47:40;;;;;;;1.23;1.00;;;21.00;99.90;;;;;;4975831;28;20235;-55
2023/09/24 08:50:08;;;;;;;0.70;0.70;;;21.60;99.90;;;;;;4983510;28;20217;-55
2023/09/24 08:52:37;;;;;;;0.60;0.60;;;21.70;99.90;;;;;;4988578;28;20572;-55
2023/09/24 08:55:05;;;;;;;0.83;0.83;;;21.70;99.90;;;;;;4977858;28;20272;-55
2023/09/24 08:57:33;;;;;;;2.67;1.17;;;22.10;99.90;;;;;;4971599;28;20259;-55
2023/09/24 09:00:00;;;;;;;1.80;0.60;;;22.40;99.90;;;;;;4973104;28;20228;-55
2023/09/24 09:02:30;;;;;;;2.00;1.07;;;22.30;99.90;;;;;;4970342;28;20213;-56
2023/09/24 09:04:57;;;;;;;3.60;0.87;;;22.10;99.90;;;;;;4970131;28;20209;-57
2023/09/24 09:07:24;;;;;;;1.07;0.67;;;22.40;99.90;;;;;;4971359;28;20209;-56
2023/09/24 09:09:55;;;;;;;0.50;0.50;;;22.90;99.90;;;;;;4969154;28;20405;-56
2023/09/24 09:12:23;;;;;;;0.70;0.70;;;23.40;99.90;;;;;;4974104;28;20209;-56
2023/09/24 09:14:51;;;;;;;1.83;0.60;;;23.60;99.90;;;;;;4968628;28;20275;-56
2023/09/24 09:17:18;;;;;;;1.10;0.60;;;23.70;99.90;;;;;;4974210;28;20288;-57
2023/09/24 09:19:52;;;;;;;0.40;0.40;;;23.50;99.90;;;;;;4991751;28;20271;-56
2023/09/24 09:22:21;;;;;;;0.70;0.70;;;23.10;99.90;;;;;;4987752;28;20328;-57
2023/09/24 09:24:49;;;;;;;1.43;0.77;;;22.80;99.90;;;;;;4975961;28;20284;-56
2023/09/24 09:27:17;;;;;;;0.57;0.50;;;22.90;99.90;;;;;;4971620;28;20208;-56
2023/09/24 09:29:44;;;;;;;1.13;1.03;;;23.50;99.90;;;;;;4973600;28;20228;-56
2023/09/24 09:32:11;;;;;;;0.63;0.63;;;23.70;99.90;;;;;;4971464;28;20209;-56
2023/09/24 09:34:53;;;;;;;0.60;0.60;;;24.20;99.90;;;;;;4973804;28;20230;-56
2023/09/24 09:37:21;;;;;;;1.00;0.53;;;24.40;99.90;;;;;;4972349;28;20296;-56
2023/09/24 09:39:48;;;;;;;0.77;0.53;;;24.30;99.90;;;;;;4973589;28;20243;-56
2023/09/24 09:42:22;;;;;;;1.10;0.50;;;23.80;99.90;;;;;;4974558;28;20208;-56
2023/09/24 09:44:51;;;;;;;1.10;0.70;;;23.90;99.90;;;;;;4973715;28;20209;-56
2023/09/24 09:47:20;;;;;;;1.50;0.50;;;24.00;99.90;;;;;;4973106;28;20892;-57
2023/09/24 09:49:57;;;;;;;0.87;0.87;;;23.50;99.90;;;;;;4973323;28;20307;-56
2023/09/24 09:52:29;;;;;;;0.43;0.43;;;23.30;99.90;;;;;;4971542;28;20630;-56
2023/09/24 09:55:00;;;;;;;0.80;0.80;;;23.50;99.90;;;;;;4972407;28;20415;-56
2023/09/24 09:57:27;;;;;;;0.60;0.60;;;23.40;99.90;;;;;;4972918;28;20208;-56
2023/09/24 09:59:55;;;;;;;0.53;0.53;;;23.70;99.90;;;;;;4973307;28;20283;-57
2023/09/24 10:02:23;;;;;;;0.97;0.83;;;23.70;99.90;;;;;;4970242;28;20204;-56
2023/09/24 10:04:51;;;;;;;0.80;0.80;;;23.00;99.90;;;;;;4972270;28;20251;-56
2023/09/24 10:07:19;;;;;;;2.50;0.70;;;23.00;99.90;;;;;;4968040;28;20209;-56
2023/09/24 10:09:46;;;;;;;1.23;0.60;;;23.30;99.90;;;;;;4971907;28;20771;-56
2023/09/24 10:12:13;;;;;;;0.80;0.70;;;23.30;99.90;;;;;;4973105;28;20235;-56
2023/09/24 10:14:42;;;;;;;1.13;0.67;;;23.30;99.90;;;;;;4973035;28;20204;-56
2023/09/24 10:17:25;;;;;;;0.87;0.67;;;23.60;99.90;;;;;;4972912;28;20200;-56
2023/09/24 10:19:55;;;;;;;1.57;0.63;;;23.80;99.90;;;;;;4971581;28;20229;-56
2023/09/24 10:22:27;;;;;;;2.10;0.70;;;24.00;99.90;;;;;;4968071;28;20211;-56
2023/09/24 10:24:54;;;;;;;0.70;0.70;;;23.90;99.90;;;;;;4961544;28;20197;-56
2023/09/24 10:27:24;;;;;;;1.37;0.50;;;24.20;99.90;;;;;;4966576;28;20283;-56
2023/09/24 10:30:08;;;;;;;1.13;0.57;;;24.20;99.90;;;;;;4970762;28;20715;-56
2023/09/24 10:32:51;;;;;;;0.40;0.40;;;24.10;99.90;;;;;;4963318;28;20215;-56
2023/09/24 10:35:20;;;;;;;1.00;1.00;;;23.90;99.90;;;;;;4970588;28;20296;-56
2023/09/24 10:38:12;;;;;;;0.60;0.60;;;23.60;99.90;;;;;;4970183;28;20291;-56
2023/09/24 10:41:06;;;;;;;0.63;0.50;;;23.20;99.90;;;;;;4954265;28;20267;-56
2023/09/24 10:43:33;;;;;;;0.70;0.70;;;23.20;99.90;;;;;;4972721;28;20640;-56
2023/09/24 10:46:27;;;;;;;0.60;0.60;;;22.30;99.90;;;;;;4970404;28;20259;-56
2023/09/24 10:48:55;;;;;;;0.73;0.73;;;22.20;99.90;;;;;;4969851;28;20303;-56
2023/09/24 10:51:22;;;;;;;0.60;0.60;;;21.80;99.90;;;;;;4969108;28;20283;-56
2023/09/24 10:53:51;;;;;;;1.03;0.60;;;21.30;99.90;;;;;;4971023;28;20268;-56
2023/09/24 10:56:18;;;;;;;1.00;0.43;;;20.90;99.90;;;;;;4966670;28;20224;-56
2023/09/24 10:58:50;;;;;;;0.90;0.90;;;20.80;99.90;;;;;;4970276;28;20268;-56
2023/09/24 11:01:17;;;;;;;1.27;0.57;;;20.90;99.90;;;;;;4969854;28;20291;-56
2023/09/24 11:03:44;;;;;;;0.83;0.50;;;20.80;99.90;;;;;;4970628;28;20232;-56
2023/09/24 11:06:11;;;;;;;0.43;0.40;;;20.90;99.90;;;;;;4967182;28;20247;-56
2023/09/24 11:08:38;;;;;;;0.60;0.60;;;20.90;99.90;;;;;;4979765;28;20278;-56
2023/09/24 11:11:06;;;;;;;0.57;0.57;;;20.90;99.90;;;;;;4988806;28;20258;-56
2023/09/24 11:13:33;;;;;;;0.57;0.57;;;21.00;99.90;;;;;;4984073;28;20200;-57
2023/09/24 11:16:01;;;;;;;0.50;0.50;;;21.00;99.90;;;;;;4979117;28;20221;-56
2023/09/24 11:18:28;;;;;;;1.83;0.50;;;21.00;99.90;;;;;;4979266;28;20210;-56
2023/09/24 11:20:55;;;;;;;0.50;0.50;;;20.70;99.90;;;;;;4983649;28;21157;-56
2023/09/24 11:23:22;;;;;;;0.50;0.50;;;20.60;99.90;;;;;;4982783;28;20256;-56
2023/09/24 11:25:51;;;;;;;0.67;0.53;;;20.60;99.90;;;;;;4979564;28;20197;-56
2023/09/24 11:28:30;;;;;;;0.60;0.60;;;20.70;99.90;;;;;;4971018;28;20204;-56
2023/09/24 11:30:57;;;;;;;0.97;0.77;;;20.80;99.90;;;;;;4972475;28;20210;-56
2023/09/24 11:33:24;;;;;;;0.50;0.50;;;20.60;99.90;;;;;;4972353;28;20204;-56
2023/09/24 11:35:54;;;;;;;0.60;0.53;;;20.60;99.90;;;;;;4974528;28;20267;-56
2023/09/24 11:38:29;;;;;;;0.53;0.53;;;20.40;99.90;;;;;;4973190;28;20747;-56
2023/09/24 11:41:06;;;;;;;1.47;0.43;;;20.30;99.90;;;;;;4975172;28;20200;-56
2023/09/24 11:43:35;;;;;;;0.43;0.43;;;20.50;99.90;;;;;;4972148;28;20758;-56
2023/09/24 11:46:02;;;;;;;1.53;0.50;;;20.70;99.90;;;;;;4973307;28;20620;-56
2023/09/24 11:48:30;;;;;;;0.57;0.57;;;21.00;99.90;;;;;;4971092;28;20215;-56
2023/09/24 11:51:01;;;;;;;0.57;0.57;;;21.00;99.90;;;;;;4975063;28;20255;-56
2023/09/24 11:53:28;;;;;;;0.83;0.50;;;21.00;99.90;;;;;;4974883;28;20723;-57
2023/09/24 11:55:57;;;;;;;0.30;0.30;;;20.70;99.90;;;;;;4975259;28;20220;-56
2023/09/24 11:58:26;;;;;;;0.40;0.40;;;20.60;99.90;;;;;;4975400;28;20251;-56
2023/09/24 12:00:55;;;;;;;0.30;0.30;;;20.30;99.90;;;;;;4975256;28;20239;-56
2023/09/24 12:03:22;;;;;;;0.40;0.40;;;20.10;99.90;;;;;;4981693;28;20236;-56
2023/09/24 12:05:49;;;;;;;0.77;0.77;;;19.80;99.90;;;;;;4979823;28;20215;-56
2023/09/24 12:08:17;;;;;;;0.50;0.50;;;19.50;99.90;;;;;;4983397;28;20225;-56
2023/09/24 12:10:46;;;;;;;1.03;0.73;;;19.40;99.90;;;;;;4983553;28;20196;-56
2023/09/24 12:13:14;;;;;;;1.10;0.47;;;19.30;99.90;;;;;;4975500;28;20206;-56
2023/09/24 12:15:41;;;;;;;1.07;0.50;;;19.40;99.90;;;;;;4975252;28;20283;-56
2023/09/24 12:18:09;;;;;;;0.37;0.37;;;19.60;99.90;;;;;;4975594;28;20260;-56
2023/09/24 12:20:38;;;;;;;2.10;0.60;;;19.60;99.90;;;;;;4975455;28;20315;-56
2023/09/24 12:23:07;;;;;;;0.30;0.30;;;19.70;99.90;;;;;;4975419;28;20204;-56
2023/09/24 12:25:35;;;;;;;0.77;0.53;;;19.80;99.90;;;;;;4975826;28;20204;-56
2023/09/24 12:28:03;;;;;;;0.60;0.40;;;19.90;99.90;;;;;;4986073;28;20196;-56
2023/09/24 12:30:30;;;;;;;1.33;0.40;;;20.10;99.90;;;;;;4993809;28;20224;-56
2023/09/24 12:32:57;;;;;;;0.40;0.40;;;20.20;99.90;;;;;;4994767;28;20225;-56
2023/09/24 12:35:26;;;;;;;1.67;0.40;;;20.30;99.90;;;;;;4994400;28;20227;-56
2023/09/24 12:37:54;;;;;;;0.50;0.50;;;20.30;99.90;;;;;;4994123;28;20679;-56
2023/09/24 12:40:22;;;;;;;0.50;0.50;;;20.10;99.90;;;;;;4994307;28;20232;-56
2023/09/24 12:42:48;;;;;;;1.37;0.40;;;20.10;99.90;;;;;;4985127;28;20664;-56
2023/09/24 12:45:17;;;;;;;0.40;0.40;;;20.10;99.90;;;;;;4992548;28;20204;-56
2023/09/24 12:47:44;;;;;;;0.67;0.67;;;20.00;99.90;;;;;;4987244;28;20250;-56
2023/09/24 12:50:12;;;;;;;0.37;0.37;;;20.10;99.90;;;;;;4986163;28;20274;-56
2023/09/24 12:52:42;;;;;;;1.50;0.40;;;20.20;99.90;;;;;;4994183;28;20928;-56
2023/09/24 12:55:10;;;;;;;1.70;0.47;;;20.10;99.90;;;;;;4994102;28;20652;-56